sensor_id;sensor_type;location;lat;lon;timestamp;temperature;humidity
42019;DHT22;27703;51.980;5.848;2022-09-09T00:01:11;15.90;99.90
42019;DHT22;27703;51.980;5.848;2022-09-09T00:06:57;16.10;99.90
42019;DHT22;27703;51.980;5.848;2022-09-09T00:09:27;16.10;99.90
42019;DHT22;27703;51.980;5.848;2022-09-09T00:15:13;16.10;99.90
42019;DHT22;27703;51.980;5.848;2022-09-09T00:17:55;16.10;99.90
42019;DHT22;27703;51.980;5.848;2022-09-09T00:20:27;16.00;99.90
42019;DHT22;27703;51.980;5.848;2022-09-09T00:23:12;15.90;99.90
42019;DHT22;27703;51.980;5.848;2022-09-09T00:25:47;16.00;99.90
42019;DHT22;27703;51.980;5.848;2022-09-09T00:28:20;16.00;99.90
42019;DHT22;27703;51.980;5.848;2022-09-09T00:30:47;16.00;99.90
42019;DHT22;27703;51.980;5.848;2022-09-09T00:33:14;16.00;99.90
42019;DHT22;27703;51.980;5.848;2022-09-09T00:35:48;16.00;99.90
42019;DHT22;27703;51.980;5.848;2022-09-09T00:38:18;16.00;99.90
42019;DHT22;27703;51.980;5.848;2022-09-09T00:40:58;16.00;99.90
42019;DHT22;27703;51.980;5.848;2022-09-09T00:43:36;16.10;99.90
42019;DHT22;27703;51.980;5.848;2022-09-09T00:55:07;16.20;99.90
42019;DHT22;27703;51.980;5.848;2022-09-09T00:57:25;16.20;99.90
42019;DHT22;27703;51.980;5.848;2022-09-09T01:00:20;16.20;99.90
42019;DHT22;27703;51.980;5.848;2022-09-09T01:08:52;16.10;99.90
42019;DHT22;27703;51.980;5.848;2022-09-09T01:11:24;16.10;99.90
42019;DHT22;27703;51.980;5.848;2022-09-09T01:13:58;16.10;99.90
42019;DHT22;27703;51.980;5.848;2022-09-09T01:16:26;16.10;99.90
42019;DHT22;27703;51.980;5.848;2022-09-09T01:18:53;16.10;99.90
42019;DHT22;27703;51.980;5.848;2022-09-09T01:21:39;16.00;99.90
42019;DHT22;27703;51.980;5.848;2022-09-09T01:24:36;16.10;99.90
42019;DHT22;27703;51.980;5.848;2022-09-09T01:27:05;16.10;99.90
42019;DHT22;27703;51.980;5.848;2022-09-09T01:29:32;16.20;99.90
42019;DHT22;27703;51.980;5.848;2022-09-09T01:35:14;16.10;99.90
42019;DHT22;27703;51.980;5.848;2022-09-09T01:37:40;16.10;99.90
42019;DHT22;27703;51.980;5.848;2022-09-09T01:40:07;16.10;99.90
42019;DHT22;27703;51.980;5.848;2022-09-09T01:42:32;16.10;99.90
42019;DHT22;27703;51.980;5.848;2022-09-09T01:44:58;16.00;99.90
42019;DHT22;27703;51.980;5.848;2022-09-09T01:47:24;16.00;99.90
42019;DHT22;27703;51.980;5.848;2022-09-09T01:49:49;16.00;99.90
42019;DHT22;27703;51.980;5.848;2022-09-09T01:52:15;16.00;99.90
42019;DHT22;27703;51.980;5.848;2022-09-09T01:54:40;16.00;99.90
42019;DHT22;27703;51.980;5.848;2022-09-09T02:08:03;15.90;99.90
42019;DHT22;27703;51.980;5.848;2022-09-09T02:13:23;16.00;99.90
42019;DHT22;27703;51.980;5.848;2022-09-09T02:16:10;16.00;99.90
42019;DHT22;27703;51.980;5.848;2022-09-09T02:21:13;16.10;99.90
42019;DHT22;27703;51.980;5.848;2022-09-09T02:23:41;16.10;99.90
42019;DHT22;27703;51.980;5.848;2022-09-09T02:26:08;16.10;99.90
42019;DHT22;27703;51.980;5.848;2022-09-09T02:28:36;16.10;99.90
42019;DHT22;27703;51.980;5.848;2022-09-09T02:31:04;16.10;99.90
42019;DHT22;27703;51.980;5.848;2022-09-09T02:33:36;16.10;99.90
42019;DHT22;27703;51.980;5.848;2022-09-09T02:36:03;16.10;99.90
42019;DHT22;27703;51.980;5.848;2022-09-09T02:38:36;16.00;99.90
42019;DHT22;27703;51.980;5.848;2022-09-09T02:41:03;16.10;99.90
42019;DHT22;27703;51.980;5.848;2022-09-09T02:43:33;16.00;99.90
42019;DHT22;27703;51.980;5.848;2022-09-09T02:49:15;16.00;99.90
42019;DHT22;27703;51.980;5.848;2022-09-09T02:56:54;16.00;99.90
42019;DHT22;27703;51.980;5.848;2022-09-09T02:59:21;16.00;99.90
42019;DHT22;27703;51.980;5.848;2022-09-09T03:01:47;16.00;99.90
42019;DHT22;27703;51.980;5.848;2022-09-09T03:04:13;16.00;99.90
42019;DHT22;27703;51.980;5.848;2022-09-09T03:06:39;16.00;99.90
42019;DHT22;27703;51.980;5.848;2022-09-09T03:09:05;16.00;99.90
42019;DHT22;27703;51.980;5.848;2022-09-09T03:11:31;16.00;99.90
42019;DHT22;27703;51.980;5.848;2022-09-09T03:13:56;16.00;99.90
42019;DHT22;27703;51.980;5.848;2022-09-09T03:16:23;16.00;99.90
42019;DHT22;27703;51.980;5.848;2022-09-09T03:18:48;16.00;99.90
42019;DHT22;27703;51.980;5.848;2022-09-09T03:21:14;16.00;99.90
42019;DHT22;27703;51.980;5.848;2022-09-09T03:23:40;15.90;99.90
42019;DHT22;27703;51.980;5.848;2022-09-09T03:26:06;15.90;99.90
42019;DHT22;27703;51.980;5.848;2022-09-09T03:28:31;15.90;99.90
42019;DHT22;27703;51.980;5.848;2022-09-09T03:31:01;15.90;99.90
42019;DHT22;27703;51.980;5.848;2022-09-09T03:33:27;15.90;99.90
42019;DHT22;27703;51.980;5.848;2022-09-09T03:35:53;15.90;99.90
42019;DHT22;27703;51.980;5.848;2022-09-09T03:38:24;15.90;99.90
42019;DHT22;27703;51.980;5.848;2022-09-09T03:40:51;15.90;99.90
42019;DHT22;27703;51.980;5.848;2022-09-09T03:43:18;15.90;99.90
42019;DHT22;27703;51.980;5.848;2022-09-09T03:45:46;15.90;99.90
42019;DHT22;27703;51.980;5.848;2022-09-09T03:48:13;15.90;99.90
42019;DHT22;27703;51.980;5.848;2022-09-09T03:50:47;15.80;99.90
42019;DHT22;27703;51.980;5.848;2022-09-09T03:53:14;15.90;99.90
42019;DHT22;27703;51.980;5.848;2022-09-09T03:55:45;15.90;99.90
42019;DHT22;27703;51.980;5.848;2022-09-09T03:58:11;15.90;99.90
42019;DHT22;27703;51.980;5.848;2022-09-09T04:00:37;15.90;99.90
42019;DHT22;27703;51.980;5.848;2022-09-09T04:03:05;16.00;99.90
42019;DHT22;27703;51.980;5.848;2022-09-09T04:05:31;16.00;99.90
42019;DHT22;27703;51.980;5.848;2022-09-09T04:07:59;15.90;99.90
42019;DHT22;27703;51.980;5.848;2022-09-09T04:10:24;16.00;99.90
42019;DHT22;27703;51.980;5.848;2022-09-09T04:12:50;15.90;99.90
42019;DHT22;27703;51.980;5.848;2022-09-09T04:15:15;15.90;99.90
42019;DHT22;27703;51.980;5.848;2022-09-09T04:17:41;16.00;99.90
42019;DHT22;27703;51.980;5.848;2022-09-09T04:20:07;16.00;99.90
42019;DHT22;27703;51.980;5.848;2022-09-09T04:22:36;15.90;99.90
42019;DHT22;27703;51.980;5.848;2022-09-09T04:25:04;15.90;99.90
42019;DHT22;27703;51.980;5.848;2022-09-09T04:27:31;16.00;99.90
42019;DHT22;27703;51.980;5.848;2022-09-09T04:29:56;15.90;99.90
42019;DHT22;27703;51.980;5.848;2022-09-09T04:32:22;15.90;99.90
42019;DHT22;27703;51.980;5.848;2022-09-09T04:34:48;16.00;99.90
42019;DHT22;27703;51.980;5.848;2022-09-09T04:37:14;16.00;99.90
42019;DHT22;27703;51.980;5.848;2022-09-09T04:39:39;16.00;99.90
42019;DHT22;27703;51.980;5.848;2022-09-09T04:42:05;16.00;99.90
42019;DHT22;27703;51.980;5.848;2022-09-09T04:44:30;16.00;99.90
42019;DHT22;27703;51.980;5.848;2022-09-09T04:46:56;16.10;99.90
42019;DHT22;27703;51.980;5.848;2022-09-09T04:49:22;16.10;99.90
42019;DHT22;27703;51.980;5.848;2022-09-09T04:51:49;16.10;99.90
42019;DHT22;27703;51.980;5.848;2022-09-09T04:54:14;16.20;99.90
42019;DHT22;27703;51.980;5.848;2022-09-09T04:56:40;16.10;99.90
42019;DHT22;27703;51.980;5.848;2022-09-09T04:59:07;16.20;99.90
42019;DHT22;27703;51.980;5.848;2022-09-09T05:01:33;16.20;99.90
42019;DHT22;27703;51.980;5.848;2022-09-09T05:03:59;16.20;99.90
42019;DHT22;27703;51.980;5.848;2022-09-09T05:06:25;16.10;99.90
42019;DHT22;27703;51.980;5.848;2022-09-09T05:08:51;16.10;99.90
42019;DHT22;27703;51.980;5.848;2022-09-09T05:11:24;16.10;99.90
42019;DHT22;27703;51.980;5.848;2022-09-09T05:13:51;16.20;99.90
42019;DHT22;27703;51.980;5.848;2022-09-09T05:16:18;16.10;99.90
42019;DHT22;27703;51.980;5.848;2022-09-09T05:18:44;16.10;99.90
42019;DHT22;27703;51.980;5.848;2022-09-09T05:21:11;16.10;99.90
42019;DHT22;27703;51.980;5.848;2022-09-09T05:23:37;16.20;99.90
42019;DHT22;27703;51.980;5.848;2022-09-09T05:26:04;16.10;99.90
42019;DHT22;27703;51.980;5.848;2022-09-09T05:28:30;16.10;99.90
42019;DHT22;27703;51.980;5.848;2022-09-09T05:33:23;16.00;99.90
42019;DHT22;27703;51.980;5.848;2022-09-09T05:35:58;16.00;99.90
42019;DHT22;27703;51.980;5.848;2022-09-09T05:38:24;16.00;99.90
42019;DHT22;27703;51.980;5.848;2022-09-09T05:40:51;16.00;99.90
42019;DHT22;27703;51.980;5.848;2022-09-09T05:43:18;16.00;99.90
42019;DHT22;27703;51.980;5.848;2022-09-09T05:45:48;16.00;99.90
42019;DHT22;27703;51.980;5.848;2022-09-09T05:48:23;16.00;99.90
42019;DHT22;27703;51.980;5.848;2022-09-09T05:50:53;16.00;99.90
42019;DHT22;27703;51.980;5.848;2022-09-09T05:53:19;16.00;99.90
42019;DHT22;27703;51.980;5.848;2022-09-09T05:55:45;15.90;99.90
42019;DHT22;27703;51.980;5.848;2022-09-09T05:58:11;15.90;99.90
42019;DHT22;27703;51.980;5.848;2022-09-09T06:00:36;15.90;99.90
42019;DHT22;27703;51.980;5.848;2022-09-09T06:03:03;15.90;99.90
42019;DHT22;27703;51.980;5.848;2022-09-09T06:05:29;15.90;99.90
42019;DHT22;27703;51.980;5.848;2022-09-09T06:07:55;16.00;99.90
42019;DHT22;27703;51.980;5.848;2022-09-09T06:10:21;16.00;99.90
42019;DHT22;27703;51.980;5.848;2022-09-09T06:12:47;16.00;99.90
42019;DHT22;27703;51.980;5.848;2022-09-09T06:15:13;16.00;99.90
42019;DHT22;27703;51.980;5.848;2022-09-09T06:17:38;16.10;99.90
42019;DHT22;27703;51.980;5.848;2022-09-09T06:20:04;16.10;99.90
42019;DHT22;27703;51.980;5.848;2022-09-09T06:22:30;16.10;99.90
42019;DHT22;27703;51.980;5.848;2022-09-09T06:24:56;16.20;99.90
42019;DHT22;27703;51.980;5.848;2022-09-09T06:27:22;16.20;99.90
42019;DHT22;27703;51.980;5.848;2022-09-09T06:29:47;16.20;99.90
42019;DHT22;27703;51.980;5.848;2022-09-09T06:32:13;16.20;99.90
42019;DHT22;27703;51.980;5.848;2022-09-09T06:34:39;16.20;99.90
42019;DHT22;27703;51.980;5.848;2022-09-09T06:37:05;16.30;99.90
42019;DHT22;27703;51.980;5.848;2022-09-09T06:39:32;16.20;99.90
42019;DHT22;27703;51.980;5.848;2022-09-09T06:41:57;16.20;99.90
42019;DHT22;27703;51.980;5.848;2022-09-09T06:44:24;16.20;99.90
42019;DHT22;27703;51.980;5.848;2022-09-09T06:46:52;16.20;99.90
42019;DHT22;27703;51.980;5.848;2022-09-09T06:49:17;16.20;99.90
42019;DHT22;27703;51.980;5.848;2022-09-09T06:51:43;16.30;99.90
42019;DHT22;27703;51.980;5.848;2022-09-09T06:54:10;16.30;99.90
42019;DHT22;27703;51.980;5.848;2022-09-09T06:56:38;16.30;99.90
42019;DHT22;27703;51.980;5.848;2022-09-09T06:59:06;16.40;99.90
42019;DHT22;27703;51.980;5.848;2022-09-09T07:01:35;16.50;99.90
42019;DHT22;27703;51.980;5.848;2022-09-09T07:04:02;16.50;99.90
42019;DHT22;27703;51.980;5.848;2022-09-09T07:06:31;16.50;99.90
42019;DHT22;27703;51.980;5.848;2022-09-09T07:08:59;16.60;99.90
42019;DHT22;27703;51.980;5.848;2022-09-09T07:11:27;16.60;99.90
42019;DHT22;27703;51.980;5.848;2022-09-09T07:13:53;16.70;99.90
42019;DHT22;27703;51.980;5.848;2022-09-09T07:16:21;16.70;99.90
42019;DHT22;27703;51.980;5.848;2022-09-09T07:18:48;16.70;99.90
42019;DHT22;27703;51.980;5.848;2022-09-09T07:21:16;16.80;99.90
42019;DHT22;27703;51.980;5.848;2022-09-09T07:23:42;16.80;99.90
42019;DHT22;27703;51.980;5.848;2022-09-09T07:26:15;16.90;99.90
42019;DHT22;27703;51.980;5.848;2022-09-09T07:28:42;16.90;99.90
42019;DHT22;27703;51.980;5.848;2022-09-09T07:31:15;16.90;99.90
42019;DHT22;27703;51.980;5.848;2022-09-09T07:33:42;17.00;99.90
42019;DHT22;27703;51.980;5.848;2022-09-09T07:36:11;17.10;99.90
42019;DHT22;27703;51.980;5.848;2022-09-09T07:38:42;17.10;99.90
42019;DHT22;27703;51.980;5.848;2022-09-09T07:41:22;17.20;99.90
42019;DHT22;27703;51.980;5.848;2022-09-09T07:43:49;17.20;99.90
42019;DHT22;27703;51.980;5.848;2022-09-09T07:46:16;17.20;99.90
42019;DHT22;27703;51.980;5.848;2022-09-09T07:48:46;17.20;99.90
42019;DHT22;27703;51.980;5.848;2022-09-09T07:51:16;17.30;99.90
42019;DHT22;27703;51.980;5.848;2022-09-09T07:53:45;17.20;99.90
42019;DHT22;27703;51.980;5.848;2022-09-09T07:56:14;17.20;99.90
42019;DHT22;27703;51.980;5.848;2022-09-09T07:58:41;17.20;99.90
42019;DHT22;27703;51.980;5.848;2022-09-09T08:01:12;17.20;99.90
42019;DHT22;27703;51.980;5.848;2022-09-09T08:03:38;17.20;99.90
42019;DHT22;27703;51.980;5.848;2022-09-09T08:06:06;17.20;99.90
42019;DHT22;27703;51.980;5.848;2022-09-09T08:08:33;17.20;99.90
42019;DHT22;27703;51.980;5.848;2022-09-09T08:11:05;17.20;99.90
42019;DHT22;27703;51.980;5.848;2022-09-09T08:13:33;17.30;99.90
42019;DHT22;27703;51.980;5.848;2022-09-09T08:16:17;17.20;99.90
42019;DHT22;27703;51.980;5.848;2022-09-09T08:18:43;17.20;99.90
42019;DHT22;27703;51.980;5.848;2022-09-09T08:21:13;17.20;99.90
42019;DHT22;27703;51.980;5.848;2022-09-09T08:23:44;17.20;99.90
42019;DHT22;27703;51.980;5.848;2022-09-09T08:26:11;17.20;99.90
42019;DHT22;27703;51.980;5.848;2022-09-09T08:28:38;17.20;99.90
42019;DHT22;27703;51.980;5.848;2022-09-09T08:31:08;17.20;99.90
42019;DHT22;27703;51.980;5.848;2022-09-09T08:33:33;17.20;99.90
42019;DHT22;27703;51.980;5.848;2022-09-09T08:35:59;17.20;99.90
42019;DHT22;27703;51.980;5.848;2022-09-09T08:38:25;17.20;99.90
42019;DHT22;27703;51.980;5.848;2022-09-09T08:40:53;17.30;99.90
42019;DHT22;27703;51.980;5.848;2022-09-09T08:43:26;17.30;99.90
42019;DHT22;27703;51.980;5.848;2022-09-09T08:46:11;17.30;99.90
42019;DHT22;27703;51.980;5.848;2022-09-09T08:48:54;17.30;99.90
42019;DHT22;27703;51.980;5.848;2022-09-09T08:51:25;17.30;99.90
42019;DHT22;27703;51.980;5.848;2022-09-09T08:53:52;17.40;99.90
42019;DHT22;27703;51.980;5.848;2022-09-09T08:56:21;17.40;99.90
42019;DHT22;27703;51.980;5.848;2022-09-09T08:58:54;17.40;99.90
42019;DHT22;27703;51.980;5.848;2022-09-09T09:01:26;17.40;99.90
42019;DHT22;27703;51.980;5.848;2022-09-09T09:12:02;17.50;99.90
42019;DHT22;27703;51.980;5.848;2022-09-09T09:14:34;17.60;99.90
42019;DHT22;27703;51.980;5.848;2022-09-09T09:17:06;17.70;99.90
42019;DHT22;27703;51.980;5.848;2022-09-09T09:19:32;17.70;99.90
42019;DHT22;27703;51.980;5.848;2022-09-09T09:27:27;17.60;99.70
42019;DHT22;27703;51.980;5.848;2022-09-09T09:29:57;17.60;99.70
42019;DHT22;27703;51.980;5.848;2022-09-09T09:32:24;17.60;99.50
42019;DHT22;27703;51.980;5.848;2022-09-09T09:34:55;17.60;99.60
42019;DHT22;27703;51.980;5.848;2022-09-09T09:37:32;17.60;99.60
42019;DHT22;27703;51.980;5.848;2022-09-09T09:42:57;17.60;99.60
42019;DHT22;27703;51.980;5.848;2022-09-09T09:47:59;17.70;99.80
42019;DHT22;27703;51.980;5.848;2022-09-09T09:50:24;17.70;99.50
42019;DHT22;27703;51.980;5.848;2022-09-09T09:52:55;17.80;99.40
42019;DHT22;27703;51.980;5.848;2022-09-09T09:55:21;17.90;99.40
42019;DHT22;27703;51.980;5.848;2022-09-09T09:57:48;18.00;99.30
42019;DHT22;27703;51.980;5.848;2022-09-09T10:00:21;18.10;99.10
42019;DHT22;27703;51.980;5.848;2022-09-09T10:02:48;18.20;99.10
42019;DHT22;27703;51.980;5.848;2022-09-09T10:05:22;18.20;99.00
42019;DHT22;27703;51.980;5.848;2022-09-09T10:10:52;18.10;98.90
42019;DHT22;27703;51.980;5.848;2022-09-09T10:16:23;18.10;98.90
42019;DHT22;27703;51.980;5.848;2022-09-09T10:19:13;18.00;99.00
42019;DHT22;27703;51.980;5.848;2022-09-09T10:24:37;18.00;99.00
42019;DHT22;27703;51.980;5.848;2022-09-09T10:27:09;18.00;99.10
42019;DHT22;27703;51.980;5.848;2022-09-09T10:32:52;18.00;99.00
42019;DHT22;27703;51.980;5.848;2022-09-09T10:44:05;18.10;98.70
42019;DHT22;27703;51.980;5.848;2022-09-09T10:51:58;18.00;98.50
42019;DHT22;27703;51.980;5.848;2022-09-09T10:54:43;18.10;98.50
42019;DHT22;27703;51.980;5.848;2022-09-09T11:00:01;18.20;98.50
42019;DHT22;27703;51.980;5.848;2022-09-09T11:02:30;18.20;98.50
42019;DHT22;27703;51.980;5.848;2022-09-09T11:07:54;18.20;98.60
42019;DHT22;27703;51.980;5.848;2022-09-09T11:10:48;18.00;99.00
42019;DHT22;27703;51.980;5.848;2022-09-09T11:15:55;17.80;99.60
42019;DHT22;27703;51.980;5.848;2022-09-09T11:18:23;17.80;99.90
42019;DHT22;27703;51.980;5.848;2022-09-09T11:20:56;17.70;99.90
42019;DHT22;27703;51.980;5.848;2022-09-09T11:23:37;17.50;99.90
42019;DHT22;27703;51.980;5.848;2022-09-09T11:26:06;17.30;99.90
42019;DHT22;27703;51.980;5.848;2022-09-09T11:37:16;17.50;99.90
42019;DHT22;27703;51.980;5.848;2022-09-09T11:42:32;17.60;99.90
42019;DHT22;27703;51.980;5.848;2022-09-09T11:44:57;17.60;99.90
42019;DHT22;27703;51.980;5.848;2022-09-09T11:47:33;17.60;99.90
42019;DHT22;27703;51.980;5.848;2022-09-09T11:52:42;17.80;99.90
42019;DHT22;27703;51.980;5.848;2022-09-09T11:55:34;17.80;99.90
42019;DHT22;27703;51.980;5.848;2022-09-09T11:58:00;17.80;99.90
42019;DHT22;27703;51.980;5.848;2022-09-09T12:00:40;17.70;99.90
42019;DHT22;27703;51.980;5.848;2022-09-09T12:05:58;17.80;99.90
42019;DHT22;27703;51.980;5.848;2022-09-09T12:08:27;17.90;99.90
42019;DHT22;27703;51.980;5.848;2022-09-09T12:10:55;18.10;99.90
42019;DHT22;27703;51.980;5.848;2022-09-09T12:13:24;18.30;99.90
42019;DHT22;27703;51.980;5.848;2022-09-09T12:15:56;18.30;99.90
42019;DHT22;27703;51.980;5.848;2022-09-09T12:18:25;18.30;99.90
42019;DHT22;27703;51.980;5.848;2022-09-09T12:26:37;18.10;99.90
42019;DHT22;27703;51.980;5.848;2022-09-09T12:31:55;17.90;99.90
42019;DHT22;27703;51.980;5.848;2022-09-09T12:34:41;17.90;99.90
42019;DHT22;27703;51.980;5.848;2022-09-09T12:39:58;18.00;99.90
42019;DHT22;27703;51.980;5.848;2022-09-09T12:42:25;18.00;99.90
42019;DHT22;27703;51.980;5.848;2022-09-09T12:44:56;18.10;99.90
42019;DHT22;27703;51.980;5.848;2022-09-09T12:50:19;18.30;99.90
42019;DHT22;27703;51.980;5.848;2022-09-09T12:52:47;18.40;99.90
42019;DHT22;27703;51.980;5.848;2022-09-09T12:55:23;18.40;99.90
42019;DHT22;27703;51.980;5.848;2022-09-09T12:57:50;18.30;99.90
42019;DHT22;27703;51.980;5.848;2022-09-09T13:00:22;18.30;99.90
42019;DHT22;27703;51.980;5.848;2022-09-09T13:02:54;18.20;99.90
42019;DHT22;27703;51.980;5.848;2022-09-09T13:05:36;18.20;99.90
42019;DHT22;27703;51.980;5.848;2022-09-09T13:08:03;18.30;99.90
42019;DHT22;27703;51.980;5.848;2022-09-09T13:10:31;18.30;99.90
42019;DHT22;27703;51.980;5.848;2022-09-09T13:12:58;18.30;99.90
42019;DHT22;27703;51.980;5.848;2022-09-09T13:15:26;18.20;99.90
42019;DHT22;27703;51.980;5.848;2022-09-09T13:17:59;18.20;99.90
42019;DHT22;27703;51.980;5.848;2022-09-09T13:20:27;18.20;99.90
42019;DHT22;27703;51.980;5.848;2022-09-09T13:22:54;18.30;99.90
42019;DHT22;27703;51.980;5.848;2022-09-09T13:25:28;18.40;99.90
42019;DHT22;27703;51.980;5.848;2022-09-09T13:28:04;18.50;99.90
42019;DHT22;27703;51.980;5.848;2022-09-09T13:30:36;18.50;99.90
42019;DHT22;27703;51.980;5.848;2022-09-09T13:33:06;18.50;99.90
42019;DHT22;27703;51.980;5.848;2022-09-09T13:35:32;18.50;99.90
42019;DHT22;27703;51.980;5.848;2022-09-09T13:38:05;18.60;99.90
42019;DHT22;27703;51.980;5.848;2022-09-09T13:40:32;18.60;99.90
42019;DHT22;27703;51.980;5.848;2022-09-09T13:42:58;18.60;99.90
42019;DHT22;27703;51.980;5.848;2022-09-09T13:45:25;18.60;99.90
42019;DHT22;27703;51.980;5.848;2022-09-09T13:47:54;18.60;99.90
42019;DHT22;27703;51.980;5.848;2022-09-09T13:50:28;18.60;99.90
42019;DHT22;27703;51.980;5.848;2022-09-09T13:52:55;18.60;99.90
42019;DHT22;27703;51.980;5.848;2022-09-09T13:55:27;18.60;99.90
42019;DHT22;27703;51.980;5.848;2022-09-09T13:57:55;18.50;99.90
42019;DHT22;27703;51.980;5.848;2022-09-09T14:00:21;18.50;99.90
42019;DHT22;27703;51.980;5.848;2022-09-09T14:02:48;18.50;99.90
42019;DHT22;27703;51.980;5.848;2022-09-09T14:05:14;18.50;99.90
42019;DHT22;27703;51.980;5.848;2022-09-09T14:07:41;18.50;99.90
42019;DHT22;27703;51.980;5.848;2022-09-09T14:10:08;18.60;99.90
42019;DHT22;27703;51.980;5.848;2022-09-09T14:12:33;18.70;99.80
42019;DHT22;27703;51.980;5.848;2022-09-09T14:14:59;18.80;99.70
42019;DHT22;27703;51.980;5.848;2022-09-09T14:17:28;18.70;99.50
42019;DHT22;27703;51.980;5.848;2022-09-09T14:19:56;18.70;99.50
42019;DHT22;27703;51.980;5.848;2022-09-09T14:22:22;18.70;99.50
42019;DHT22;27703;51.980;5.848;2022-09-09T14:24:48;18.60;99.40
42019;DHT22;27703;51.980;5.848;2022-09-09T14:27:14;18.50;99.50
42019;DHT22;27703;51.980;5.848;2022-09-09T14:29:40;18.50;99.60
42019;DHT22;27703;51.980;5.848;2022-09-09T14:32:05;18.50;99.70
42019;DHT22;27703;51.980;5.848;2022-09-09T14:34:31;18.50;99.70
42019;DHT22;27703;51.980;5.848;2022-09-09T14:37:01;18.50;99.80
42019;DHT22;27703;51.980;5.848;2022-09-09T14:39:27;18.50;99.70
42019;DHT22;27703;51.980;5.848;2022-09-09T14:41:52;18.60;99.80
42019;DHT22;27703;51.980;5.848;2022-09-09T14:44:18;18.60;99.70
42019;DHT22;27703;51.980;5.848;2022-09-09T14:46:44;18.60;99.70
42019;DHT22;27703;51.980;5.848;2022-09-09T14:49:09;18.70;99.70
42019;DHT22;27703;51.980;5.848;2022-09-09T14:51:38;18.70;99.70
42019;DHT22;27703;51.980;5.848;2022-09-09T14:54:04;18.80;99.70
42019;DHT22;27703;51.980;5.848;2022-09-09T14:56:32;18.90;99.70
42019;DHT22;27703;51.980;5.848;2022-09-09T14:58:59;18.90;99.60
42019;DHT22;27703;51.980;5.848;2022-09-09T15:01:29;18.90;99.60
42019;DHT22;27703;51.980;5.848;2022-09-09T15:03:57;18.90;99.70
42019;DHT22;27703;51.980;5.848;2022-09-09T15:06:24;18.90;99.70
42019;DHT22;27703;51.980;5.848;2022-09-09T15:08:51;18.90;99.60
42019;DHT22;27703;51.980;5.848;2022-09-09T15:11:18;18.80;99.60
42019;DHT22;27703;51.980;5.848;2022-09-09T15:13:44;18.80;99.70
42019;DHT22;27703;51.980;5.848;2022-09-09T15:16:15;18.80;99.80
42019;DHT22;27703;51.980;5.848;2022-09-09T15:18:41;18.80;99.80
42019;DHT22;27703;51.980;5.848;2022-09-09T15:21:29;18.70;99.90
42019;DHT22;27703;51.980;5.848;2022-09-09T15:23:55;18.60;99.90
42019;DHT22;27703;51.980;5.848;2022-09-09T15:26:21;18.50;99.90
42019;DHT22;27703;51.980;5.848;2022-09-09T15:28:47;18.50;99.90
42019;DHT22;27703;51.980;5.848;2022-09-09T15:31:16;18.40;99.90
42019;DHT22;27703;51.980;5.848;2022-09-09T15:33:47;18.40;99.90
42019;DHT22;27703;51.980;5.848;2022-09-09T15:36:21;18.30;99.90
42019;DHT22;27703;51.980;5.848;2022-09-09T15:38:47;18.30;99.90
42019;DHT22;27703;51.980;5.848;2022-09-09T15:41:14;18.30;99.90
42019;DHT22;27703;51.980;5.848;2022-09-09T15:43:44;18.30;99.90
42019;DHT22;27703;51.980;5.848;2022-09-09T15:48:46;18.30;99.90
42019;DHT22;27703;51.980;5.848;2022-09-09T15:51:11;18.30;99.90
42019;DHT22;27703;51.980;5.848;2022-09-09T15:53:38;18.40;99.90
42019;DHT22;27703;51.980;5.848;2022-09-09T15:56:06;18.40;99.90
42019;DHT22;27703;51.980;5.848;2022-09-09T15:58:33;18.30;99.90
42019;DHT22;27703;51.980;5.848;2022-09-09T16:01:06;18.20;99.90
42019;DHT22;27703;51.980;5.848;2022-09-09T16:03:36;18.10;99.90
42019;DHT22;27703;51.980;5.848;2022-09-09T16:06:02;17.70;99.90
42019;DHT22;27703;51.980;5.848;2022-09-09T16:08:35;17.30;99.90
42019;DHT22;27703;51.980;5.848;2022-09-09T16:11:13;17.00;99.90
42019;DHT22;27703;51.980;5.848;2022-09-09T16:13:43;16.80;99.90
42019;DHT22;27703;51.980;5.848;2022-09-09T16:16:11;16.70;99.90
42019;DHT22;27703;51.980;5.848;2022-09-09T16:18:45;16.60;99.90
42019;DHT22;27703;51.980;5.848;2022-09-09T16:21:22;16.70;99.90
42019;DHT22;27703;51.980;5.848;2022-09-09T16:23:50;16.80;99.90
42019;DHT22;27703;51.980;5.848;2022-09-09T16:26:16;16.90;99.90
42019;DHT22;27703;51.980;5.848;2022-09-09T16:28:43;17.00;99.90
42019;DHT22;27703;51.980;5.848;2022-09-09T16:31:12;17.10;99.90
42019;DHT22;27703;51.980;5.848;2022-09-09T16:33:39;17.10;99.90
42019;DHT22;27703;51.980;5.848;2022-09-09T16:36:10;17.20;99.90
42019;DHT22;27703;51.980;5.848;2022-09-09T16:38:36;17.20;99.90
42019;DHT22;27703;51.980;5.848;2022-09-09T16:41:03;17.20;99.90
42019;DHT22;27703;51.980;5.848;2022-09-09T16:43:30;17.20;99.90
42019;DHT22;27703;51.980;5.848;2022-09-09T16:45:55;17.20;99.90
42019;DHT22;27703;51.980;5.848;2022-09-09T16:48:21;17.20;99.90
42019;DHT22;27703;51.980;5.848;2022-09-09T16:50:47;17.20;99.90
42019;DHT22;27703;51.980;5.848;2022-09-09T16:53:12;17.20;99.90
42019;DHT22;27703;51.980;5.848;2022-09-09T16:55:40;17.10;99.90
42019;DHT22;27703;51.980;5.848;2022-09-09T16:58:06;17.10;99.90
42019;DHT22;27703;51.980;5.848;2022-09-09T17:00:34;17.10;99.90
42019;DHT22;27703;51.980;5.848;2022-09-09T17:03:00;17.00;99.90
42019;DHT22;27703;51.980;5.848;2022-09-09T17:05:25;17.00;99.90
42019;DHT22;27703;51.980;5.848;2022-09-09T17:07:51;17.00;99.90
42019;DHT22;27703;51.980;5.848;2022-09-09T17:10:17;17.00;99.90
42019;DHT22;27703;51.980;5.848;2022-09-09T17:12:42;17.00;99.90
42019;DHT22;27703;51.980;5.848;2022-09-09T17:15:08;17.00;99.90
42019;DHT22;27703;51.980;5.848;2022-09-09T17:17:34;17.00;99.90
42019;DHT22;27703;51.980;5.848;2022-09-09T17:20:00;17.10;99.90
42019;DHT22;27703;51.980;5.848;2022-09-09T17:22:27;17.10;99.90
42019;DHT22;27703;51.980;5.848;2022-09-09T17:24:52;17.10;99.90
42019;DHT22;27703;51.980;5.848;2022-09-09T17:27:18;17.20;99.90
42019;DHT22;27703;51.980;5.848;2022-09-09T17:29:44;17.10;99.90
42019;DHT22;27703;51.980;5.848;2022-09-09T17:32:09;17.10;99.90
42019;DHT22;27703;51.980;5.848;2022-09-09T17:34:35;17.10;99.90
42019;DHT22;27703;51.980;5.848;2022-09-09T17:37:01;17.00;99.90
42019;DHT22;27703;51.980;5.848;2022-09-09T17:39:26;17.00;99.90
42019;DHT22;27703;51.980;5.848;2022-09-09T17:41:53;17.00;99.90
42019;DHT22;27703;51.980;5.848;2022-09-09T17:44:19;16.90;99.90
42019;DHT22;27703;51.980;5.848;2022-09-09T17:46:45;16.90;99.90
42019;DHT22;27703;51.980;5.848;2022-09-09T17:49:13;17.00;99.90
42019;DHT22;27703;51.980;5.848;2022-09-09T17:51:40;17.00;99.90
42019;DHT22;27703;51.980;5.848;2022-09-09T17:54:26;17.00;99.90
42019;DHT22;27703;51.980;5.848;2022-09-09T17:56:52;17.00;99.90
42019;DHT22;27703;51.980;5.848;2022-09-09T17:59:18;17.00;99.90